Alviso, California
Current Conditions -  °F | °C
As of 10:56 PM on Friday 31 Oct 2014 (Local Time) from KNUQ Reporting Station
Scattered Clouds Scattered Clouds  
Wind Chill: 14°   Ceiling: Unl
Heat Index: 14°   Visibility: 10mi
Dew Point: 12°   Wind: 0mph
Humidity: 87%   Direction: NA
Pressure: 29.77"   Gusts: NA
Location:  37.43°N, 121.97°W
Report Text: KNUQ 010556Z AUTO 00000KT 10SM SCT095 14/12 A2977 RMK AO2 SLP082 T01390117 10144 20133 56007 TSNO
Loading
Personal Weather Stations






























Interactive Weather Map
Tropical Storm Tracking
New forecast layout! Learn more

10-Day Weather Forecast

Advertisements
Track Severe Weather on mobile